sensor_id;sensor_type;location;lat;lon;timestamp;pressure;altitude;pressure_sealevel;temperature;humidity
15634;BME280;14654;48.898;8.308;2023-05-16T00:00:05;100018.16;;;14.40;100.00
15634;BME280;14654;48.898;8.308;2023-05-16T00:02:33;100026.06;;;14.37;100.00
15634;BME280;14654;48.898;8.308;2023-05-16T00:04:58;100019.19;;;14.35;100.00
15634;BME280;14654;48.898;8.308;2023-05-16T00:07:24;100017.50;;;14.33;100.00
15634;BME280;14654;48.898;8.308;2023-05-16T00:09:49;100017.50;;;14.33;100.00
15634;BME280;14654;48.898;8.308;2023-05-16T00:12:15;100019.25;;;14.33;100.00
15634;BME280;14654;48.898;8.308;2023-05-16T00:14:41;100022.69;;;14.33;100.00
15634;BME280;14654;48.898;8.308;2023-05-16T00:17:07;100003.63;;;14.33;100.00
15634;BME280;14654;48.898;8.308;2023-05-16T00:19:36;100017.50;;;14.33;100.00
15634;BME280;14654;48.898;8.308;2023-05-16T00:22:04;100006.25;;;14.31;100.00
15634;BME280;14654;48.898;8.308;2023-05-16T00:24:29;100018.34;;;14.34;100.00
15634;BME280;14654;48.898;8.308;2023-05-16T00:26:54;100014.00;;;14.35;100.00
15634;BME280;14654;48.898;8.308;2023-05-16T00:29:20;100019.25;;;14.33;100.00
15634;BME280;14654;48.898;8.308;2023-05-16T00:31:45;100008.88;;;14.31;100.00
15634;BME280;14654;48.898;8.308;2023-05-16T00:34:10;100011.47;;;14.31;100.00
15634;BME280;14654;48.898;8.308;2023-05-16T00:36:36;100005.44;;;14.31;100.00
15634;BME280;14654;48.898;8.308;2023-05-16T00:39:01;100017.53;;;14.32;100.00
15634;BME280;14654;48.898;8.308;2023-05-16T00:41:27;100024.47;;;14.33;100.00
15634;BME280;14654;48.898;8.308;2023-05-16T00:43:52;100017.50;;;14.33;100.00
15634;BME280;14654;48.898;8.308;2023-05-16T00:46:18;100016.59;;;14.35;100.00
15634;BME280;14654;48.898;8.308;2023-05-16T00:48:43;100018.31;;;14.36;100.00
15634;BME280;14654;48.898;8.308;2023-05-16T00:51:09;100018.31;;;14.36;100.00
15634;BME280;14654;48.898;8.308;2023-05-16T00:53:35;100022.66;;;14.35;100.00
15634;BME280;14654;48.898;8.308;2023-05-16T00:56:01;100019.16;;;14.36;100.00
15634;BME280;14654;48.898;8.308;2023-05-16T00:58:29;100010.56;;;14.34;100.00
15634;BME280;14654;48.898;8.308;2023-05-16T01:00:56;100022.69;;;14.33;100.00
15634;BME280;14654;48.898;8.308;2023-05-16T01:03:22;100021.84;;;14.33;100.00
15634;BME280;14654;48.898;8.308;2023-05-16T01:05:48;100013.22;;;14.31;100.00
15634;BME280;14654;48.898;8.308;2023-05-16T01:08:14;100012.41;;;14.29;100.00
15634;BME280;14654;48.898;8.308;2023-05-16T01:10:46;100012.47;;;14.27;100.00
15634;BME280;14654;48.898;8.308;2023-05-16T01:13:26;100012.50;;;14.26;100.00
15634;BME280;14654;48.898;8.308;2023-05-16T01:16:04;100011.75;;;14.22;100.00
15634;BME280;14654;48.898;8.308;2023-05-16T01:18:41;100018.75;;;14.20;100.00
15634;BME280;14654;48.898;8.308;2023-05-16T01:21:12;100020.53;;;14.18;100.00
15634;BME280;14654;48.898;8.308;2023-05-16T01:23:59;100011.91;;;14.16;100.00
15634;BME280;14654;48.898;8.308;2023-05-16T01:26:28;100019.78;;;14.14;100.00
15634;BME280;14654;48.898;8.308;2023-05-16T01:28:54;100018.06;;;14.13;100.00
15634;BME280;14654;48.898;8.308;2023-05-16T01:31:20;100021.56;;;14.12;100.00
15634;BME280;14654;48.898;8.308;2023-05-16T01:33:46;100017.31;;;14.10;100.00
15634;BME280;14654;48.898;8.308;2023-05-16T01:36:25;100013.00;;;14.09;100.00
15634;BME280;14654;48.898;8.308;2023-05-16T01:39:11;100013.94;;;14.06;100.00
15634;BME280;14654;48.898;8.308;2023-05-16T01:41:54;100025.25;;;14.03;100.00
15634;BME280;14654;48.898;8.308;2023-05-16T01:44:38;100021.03;;;13.99;100.00
15634;BME280;14654;48.898;8.308;2023-05-16T01:47:13;100015.03;;;13.97;100.00
15634;BME280;14654;48.898;8.308;2023-05-16T01:49:45;100021.97;;;13.97;100.00
15634;BME280;14654;48.898;8.308;2023-05-16T01:52:19;100017.66;;;13.97;100.00
15634;BME280;14654;48.898;8.308;2023-05-16T01:54:47;100019.34;;;13.98;100.00
15634;BME280;14654;48.898;8.308;2023-05-16T01:57:15;100031.50;;;13.98;100.00
15634;BME280;14654;48.898;8.308;2023-05-16T01:59:41;100031.50;;;13.98;100.00
15634;BME280;14654;48.898;8.308;2023-05-16T02:02:07;100028.06;;;13.97;100.00
15634;BME280;14654;48.898;8.308;2023-05-16T02:04:32;100035.00;;;13.97;100.00
15634;BME280;14654;48.898;8.308;2023-05-16T02:06:58;100031.56;;;13.96;100.00
15634;BME280;14654;48.898;8.308;2023-05-16T02:09:25;100032.47;;;13.94;100.00
15634;BME280;14654;48.898;8.308;2023-05-16T02:11:50;100032.66;;;13.87;100.00
15634;BME280;14654;48.898;8.308;2023-05-16T02:14:15;100038.81;;;13.83;100.00
15634;BME280;14654;48.898;8.308;2023-05-16T02:16:40;100038.13;;;13.77;100.00
15634;BME280;14654;48.898;8.308;2023-05-16T02:19:06;100034.84;;;13.70;100.00
15634;BME280;14654;48.898;8.308;2023-05-16T02:21:31;100039.28;;;13.65;100.00
15634;BME280;14654;48.898;8.308;2023-05-16T02:23:56;100045.47;;;13.61;100.00
15634;BME280;14654;48.898;8.308;2023-05-16T02:26:22;100042.91;;;13.59;100.00
15634;BME280;14654;48.898;8.308;2023-05-16T02:28:47;100041.06;;;13.64;100.00
15634;BME280;14654;48.898;8.308;2023-05-16T02:31:28;100041.94;;;13.63;100.00
15634;BME280;14654;48.898;8.308;2023-05-16T02:33:54;100047.25;;;13.59;100.00
15634;BME280;14654;48.898;8.308;2023-05-16T02:36:20;100049.94;;;13.54;100.00
15634;BME280;14654;48.898;8.308;2023-05-16T02:38:45;100046.50;;;13.53;100.00
15634;BME280;14654;48.898;8.308;2023-05-16T02:41:11;100049.16;;;13.52;100.00
15634;BME280;14654;48.898;8.308;2023-05-16T02:43:36;100048.38;;;13.48;100.00
15634;BME280;14654;48.898;8.308;2023-05-16T02:46:04;100047.47;;;13.49;100.00
15634;BME280;14654;48.898;8.308;2023-05-16T02:48:29;100045.81;;;13.47;100.00
15634;BME280;14654;48.898;8.308;2023-05-16T02:50:55;100036.25;;;13.49;100.00
15634;BME280;14654;48.898;8.308;2023-05-16T02:53:20;100037.88;;;13.53;100.00
15634;BME280;14654;48.898;8.308;2023-05-16T02:55:45;100045.69;;;13.53;100.00
15634;BME280;14654;48.898;8.308;2023-05-16T02:58:11;100046.56;;;13.52;100.00
15634;BME280;14654;48.898;8.308;2023-05-16T03:00:36;100038.75;;;13.52;100.00
15634;BME280;14654;48.898;8.308;2023-05-16T03:03:03;100046.50;;;13.53;100.00
15634;BME280;14654;48.898;8.308;2023-05-16T03:05:28;100049.16;;;13.52;100.00
15634;BME280;14654;48.898;8.308;2023-05-16T03:07:54;100050.06;;;13.49;100.00
15634;BME280;14654;48.898;8.308;2023-05-16T03:10:19;100051.09;;;13.44;100.00
15634;BME280;14654;48.898;8.308;2023-05-16T03:12:45;100046.81;;;13.39;100.00
15634;BME280;14654;48.898;8.308;2023-05-16T03:15:10;100049.41;;;13.39;100.00
15634;BME280;14654;48.898;8.308;2023-05-16T03:17:35;100054.59;;;13.39;100.00
15634;BME280;14654;48.898;8.308;2023-05-16T03:20:01;100039.97;;;13.37;100.00
15634;BME280;14654;48.898;8.308;2023-05-16T03:22:27;100053.84;;;13.36;100.00
15634;BME280;14654;48.898;8.308;2023-05-16T03:24:52;100053.03;;;13.34;100.00
15634;BME280;14654;48.898;8.308;2023-05-16T03:27:17;100059.97;;;13.33;100.00
15634;BME280;14654;48.898;8.308;2023-05-16T03:29:43;100053.88;;;13.34;100.00
15634;BME280;14654;48.898;8.308;2023-05-16T03:32:10;100052.13;;;13.35;100.00
15634;BME280;14654;48.898;8.308;2023-05-16T03:34:35;100050.41;;;13.34;100.00
15634;BME280;14654;48.898;8.308;2023-05-16T03:37:00;100053.88;;;13.34;100.00
15634;BME280;14654;48.898;8.308;2023-05-16T03:39:26;100060.88;;;13.32;100.00
15634;BME280;14654;48.898;8.308;2023-05-16T03:41:51;100057.44;;;13.30;100.00
15634;BME280;14654;48.898;8.308;2023-05-16T03:44:20;100064.41;;;13.28;100.00
15634;BME280;14654;48.898;8.308;2023-05-16T03:46:45;100068.88;;;13.23;100.00
15634;BME280;14654;48.898;8.308;2023-05-16T03:49:10;100064.66;;;13.19;100.00
15634;BME280;14654;48.898;8.308;2023-05-16T03:51:36;100072.47;;;13.17;100.00
15634;BME280;14654;48.898;8.308;2023-05-16T03:54:01;100071.69;;;13.14;100.00
15634;BME280;14654;48.898;8.308;2023-05-16T03:56:26;100076.03;;;13.13;100.00
15634;BME280;14654;48.898;8.308;2023-05-16T03:58:52;100077.00;;;13.09;100.00
15634;BME280;14654;48.898;8.308;2023-05-16T04:01:17;100081.31;;;13.08;100.00
15634;BME280;14654;48.898;8.308;2023-05-16T04:03:42;100079.66;;;13.06;100.00
15634;BME280;14654;48.898;8.308;2023-05-16T04:06:07;100078.78;;;13.07;100.00
15634;BME280;14654;48.898;8.308;2023-05-16T04:08:33;100090.03;;;13.07;100.00
15634;BME280;14654;48.898;8.308;2023-05-16T04:10:58;100090.03;;;13.07;100.00
15634;BME280;14654;48.898;8.308;2023-05-16T04:13:23;100095.22;;;13.07;100.00
15634;BME280;14654;48.898;8.308;2023-05-16T04:15:49;100096.91;;;13.08;100.00
15634;BME280;14654;48.898;8.308;2023-05-16T04:18:14;100095.28;;;13.04;100.00
15634;BME280;14654;48.898;8.308;2023-05-16T04:20:42;100097.91;;;13.03;100.00
15634;BME280;14654;48.898;8.308;2023-05-16T04:23:09;100096.19;;;13.03;100.00
15634;BME280;14654;48.898;8.308;2023-05-16T04:25:37;100099.69;;;13.01;100.00
15634;BME280;14654;48.898;8.308;2023-05-16T04:28:02;100111.81;;;13.00;100.00
15634;BME280;14654;48.898;8.308;2023-05-16T04:30:28;100092.00;;;12.96;100.00
15634;BME280;14654;48.898;8.308;2023-05-16T04:32:53;100096.34;;;12.95;100.00
15634;BME280;14654;48.898;8.308;2023-05-16T04:35:19;100100.75;;;12.92;100.00
15634;BME280;14654;48.898;8.308;2023-05-16T04:37:45;100105.94;;;12.92;100.00
15634;BME280;14654;48.898;8.308;2023-05-16T04:40:11;100110.25;;;12.93;100.00
15634;BME280;14654;48.898;8.308;2023-05-16T04:42:37;100102.44;;;12.94;100.00
15634;BME280;14654;48.898;8.308;2023-05-16T04:45:02;100099.81;;;12.94;100.00
15634;BME280;14654;48.898;8.308;2023-05-16T04:47:30;100098.94;;;12.94;100.00
15634;BME280;14654;48.898;8.308;2023-05-16T04:49:56;100097.28;;;12.93;100.00
15634;BME280;14654;48.898;8.308;2023-05-16T04:52:21;100107.66;;;12.93;100.00
15634;BME280;14654;48.898;8.308;2023-05-16T04:54:49;100106.00;;;12.89;100.00
15634;BME280;14654;48.898;8.308;2023-05-16T04:57:15;100110.47;;;12.82;100.00
15634;BME280;14654;48.898;8.308;2023-05-16T04:59:40;100107.94;;;12.79;100.00
15634;BME280;14654;48.898;8.308;2023-05-16T05:02:05;100113.19;;;12.77;100.00
15634;BME280;14654;48.898;8.308;2023-05-16T05:04:31;100110.66;;;12.74;100.00
15634;BME280;14654;48.898;8.308;2023-05-16T05:06:56;100115.91;;;12.71;100.00
15634;BME280;14654;48.898;8.308;2023-05-16T05:09:22;100119.38;;;12.70;100.00
15634;BME280;14654;48.898;8.308;2023-05-16T05:11:47;100123.78;;;12.65;100.00
15634;BME280;14654;48.898;8.308;2023-05-16T05:14:12;100122.22;;;12.56;100.00
15634;BME280;14654;48.898;8.308;2023-05-16T05:16:38;100123.16;;;12.54;100.00
15634;BME280;14654;48.898;8.308;2023-05-16T05:19:03;100122.22;;;12.56;100.00
15634;BME280;14654;48.898;8.308;2023-05-16T05:21:28;100124.03;;;12.54;100.00
15634;BME280;14654;48.898;8.308;2023-05-16T05:23:54;100125.69;;;12.57;100.00
15634;BME280;14654;48.898;8.308;2023-05-16T05:26:20;100133.44;;;12.58;100.00
15634;BME280;14654;48.898;8.308;2023-05-16T05:28:46;100130.75;;;12.64;100.00
15634;BME280;14654;48.898;8.308;2023-05-16T05:31:11;100131.56;;;12.67;100.00
15634;BME280;14654;48.898;8.308;2023-05-16T05:33:36;100138.44;;;12.69;100.00
15634;BME280;14654;48.898;8.308;2023-05-16T05:36:02;100142.69;;;12.72;100.00
15634;BME280;14654;48.898;8.308;2023-05-16T05:38:27;100134.91;;;12.72;100.00
15634;BME280;14654;48.898;8.308;2023-05-16T05:40:53;100140.09;;;12.73;100.00
15634;BME280;14654;48.898;8.308;2023-05-16T05:43:18;100139.25;;;12.71;100.00
15634;BME280;14654;48.898;8.308;2023-05-16T05:45:43;100144.41;;;12.73;100.00
15634;BME280;14654;48.898;8.308;2023-05-16T05:48:09;100140.94;;;12.74;100.00
15634;BME280;14654;48.898;8.308;2023-05-16T05:50:35;100145.25;;;12.75;100.00
15634;BME280;14654;48.898;8.308;2023-05-16T05:53:01;100149.56;;;12.76;100.00
15634;BME280;14654;48.898;8.308;2023-05-16T05:55:26;100149.56;;;12.76;100.00
15634;BME280;14654;48.898;8.308;2023-05-16T05:57:52;100151.31;;;12.75;100.00
15634;BME280;14654;48.898;8.308;2023-05-16T06:00:17;100155.63;;;12.75;100.00
15634;BME280;14654;48.898;8.308;2023-05-16T06:02:43;100154.94;;;12.67;100.00
15634;BME280;14654;48.898;8.308;2023-05-16T06:05:08;100162.72;;;12.67;100.00
15634;BME280;14654;48.898;8.308;2023-05-16T06:07:34;100165.34;;;12.65;100.00
15634;BME280;14654;48.898;8.308;2023-05-16T06:09:59;100160.13;;;12.65;100.00
15634;BME280;14654;48.898;8.308;2023-05-16T06:12:28;100160.91;;;12.70;100.00
15634;BME280;14654;48.898;8.308;2023-05-16T06:14:53;100162.63;;;12.71;100.00
15634;BME280;14654;48.898;8.308;2023-05-16T06:17:19;100164.44;;;12.68;100.00
15634;BME280;14654;48.898;8.308;2023-05-16T06:19:45;100161.84;;;12.66;100.00
15634;BME280;14654;48.898;8.308;2023-05-16T06:22:10;100175.66;;;12.70;100.00
15634;BME280;14654;48.898;8.308;2023-05-16T06:24:35;100168.66;;;12.73;100.00
15634;BME280;14654;48.898;8.308;2023-05-16T06:27:01;100173.75;;;12.78;100.00
15634;BME280;14654;48.898;8.308;2023-05-16T06:29:26;100170.28;;;12.79;100.00
15634;BME280;14654;48.898;8.308;2023-05-16T06:31:51;100180.59;;;12.82;100.00
15634;BME280;14654;48.898;8.308;2023-05-16T06:34:16;100185.78;;;12.82;100.00
15634;BME280;14654;48.898;8.308;2023-05-16T06:36:42;100187.50;;;12.83;100.00
15634;BME280;14654;48.898;8.308;2023-05-16T06:39:08;100183.94;;;12.87;100.00
15634;BME280;14654;48.898;8.308;2023-05-16T06:41:33;100184.81;;;12.86;100.00
15634;BME280;14654;48.898;8.308;2023-05-16T06:43:59;100188.34;;;12.84;100.00
15634;BME280;14654;48.898;8.308;2023-05-16T06:46:24;100186.59;;;12.86;100.00
15634;BME280;14654;48.898;8.308;2023-05-16T06:48:50;100187.38;;;12.89;100.00
15634;BME280;14654;48.898;8.308;2023-05-16T06:51:15;100190.78;;;12.93;100.00
15634;BME280;14654;48.898;8.308;2023-05-16T06:53:41;100189.84;;;12.95;100.00
15634;BME280;14654;48.898;8.308;2023-05-16T06:56:06;100194.19;;;12.95;100.00
15634;BME280;14654;48.898;8.308;2023-05-16T06:58:31;100201.91;;;12.98;100.00
15634;BME280;14654;48.898;8.308;2023-05-16T07:00:57;100195.81;;;13.01;100.00
15634;BME280;14654;48.898;8.308;2023-05-16T07:03:22;100201.91;;;13.00;100.00
15634;BME280;14654;48.898;8.308;2023-05-16T07:05:47;100202.69;;;13.03;100.00
15634;BME280;14654;48.898;8.308;2023-05-16T07:08:15;100206.94;;;13.07;100.00
15634;BME280;14654;48.898;8.308;2023-05-16T07:10:41;100202.53;;;13.09;100.00
15634;BME280;14654;48.898;8.308;2023-05-16T07:13:07;100206.84;;;13.10;100.00
15634;BME280;14654;48.898;8.308;2023-05-16T07:15:32;100201.59;;;13.14;100.00
15634;BME280;14654;48.898;8.308;2023-05-16T07:17:58;100198.16;;;13.11;100.00
15634;BME280;14654;48.898;8.308;2023-05-16T07:20:23;100210.22;;;13.16;100.00
15634;BME280;14654;48.898;8.308;2023-05-16T07:22:49;100202.47;;;13.13;100.00
15634;BME280;14654;48.898;8.308;2023-05-16T07:25:14;100201.59;;;13.15;100.00
15634;BME280;14654;48.898;8.308;2023-05-16T07:27:41;100212.78;;;13.17;100.00
15634;BME280;14654;48.898;8.308;2023-05-16T07:30:12;100212.69;;;13.22;100.00
15634;BME280;14654;48.898;8.308;2023-05-16T07:32:38;100208.28;;;13.25;100.00
15634;BME280;14654;48.898;8.308;2023-05-16T07:35:04;100210.94;;;13.22;100.00
15634;BME280;14654;48.898;8.308;2023-05-16T07:37:30;100212.56;;;13.28;100.00
15634;BME280;14654;48.898;8.308;2023-05-16T07:39:55;100218.47;;;13.35;100.00
15634;BME280;14654;48.898;8.308;2023-05-16T07:42:20;100221.06;;;13.36;100.00
15634;BME280;14654;48.898;8.308;2023-05-16T07:44:46;100224.75;;;13.24;100.00
15634;BME280;14654;48.898;8.308;2023-05-16T07:47:11;100220.41;;;13.25;100.00
15634;BME280;14654;48.898;8.308;2023-05-16T07:49:36;100224.72;;;13.26;100.00
15634;BME280;14654;48.898;8.308;2023-05-16T07:52:02;100221.22;;;13.29;100.00
15634;BME280;14654;48.898;8.308;2023-05-16T07:54:27;100227.31;;;13.27;100.00
15634;BME280;14654;48.898;8.308;2023-05-16T07:56:52;100227.25;;;13.29;100.00
15634;BME280;14654;48.898;8.308;2023-05-16T07:59:18;100211.66;;;13.29;99.96
15634;BME280;14654;48.898;8.308;2023-05-16T08:01:44;100221.22;;;13.27;98.87
15634;BME280;14654;48.898;8.308;2023-05-16T08:04:09;100221.22;;;13.29;98.93
15634;BME280;14654;48.898;8.308;2023-05-16T08:06:35;100231.41;;;13.38;98.99
15634;BME280;14654;48.898;8.308;2023-05-16T08:09:01;100233.94;;;13.43;98.61
15634;BME280;14654;48.898;8.308;2023-05-16T08:11:26;100225.06;;;13.53;97.68
15634;BME280;14654;48.898;8.308;2023-05-16T08:13:52;100225.91;;;13.53;97.41
15634;BME280;14654;48.898;8.308;2023-05-16T08:16:17;100224.16;;;13.54;97.64
15634;BME280;14654;48.898;8.308;2023-05-16T08:18:42;100233.59;;;13.60;97.54
15634;BME280;14654;48.898;8.308;2023-05-16T08:21:08;100234.31;;;13.66;97.18
15634;BME280;14654;48.898;8.308;2023-05-16T08:23:33;100237.09;;;13.57;97.31
15634;BME280;14654;48.898;8.308;2023-05-16T08:26:00;100238.75;;;13.61;97.87
15634;BME280;14654;48.898;8.308;2023-05-16T08:28:26;100230.97;;;13.60;97.14
15634;BME280;14654;48.898;8.308;2023-05-16T08:30:51;100238.78;;;13.60;97.52
15634;BME280;14654;48.898;8.308;2023-05-16T08:33:16;100240.72;;;13.50;97.79
15634;BME280;14654;48.898;8.308;2023-05-16T08:35:42;100241.72;;;13.43;98.49
15634;BME280;14654;48.898;8.308;2023-05-16T08:38:08;100239.13;;;13.43;98.48
15634;BME280;14654;48.898;8.308;2023-05-16T08:40:33;100262.66;;;13.35;97.89
15634;BME280;14654;48.898;8.308;2023-05-16T08:42:59;100241.97;;;13.30;98.58
15634;BME280;14654;48.898;8.308;2023-05-16T08:45:24;100244.53;;;13.32;99.17
15634;BME280;14654;48.898;8.308;2023-05-16T08:47:53;100241.81;;;13.38;99.93
15634;BME280;14654;48.898;8.308;2023-05-16T08:50:19;100246.97;;;13.41;99.50
15634;BME280;14654;48.898;8.308;2023-05-16T08:52:46;100249.53;;;13.44;99.68
15634;BME280;14654;48.898;8.308;2023-05-16T08:55:12;100249.47;;;13.46;98.08
15634;BME280;14654;48.898;8.308;2023-05-16T08:57:39;100256.44;;;13.44;98.05
15634;BME280;14654;48.898;8.308;2023-05-16T09:00:08;100246.88;;;13.46;97.70
15634;BME280;14654;48.898;8.308;2023-05-16T09:02:39;100243.31;;;13.50;98.27
15634;BME280;14654;48.898;8.308;2023-05-16T09:05:07;100246.59;;;13.58;98.36
15634;BME280;14654;48.898;8.308;2023-05-16T09:07:33;100247.38;;;13.62;96.78
15634;BME280;14654;48.898;8.308;2023-05-16T09:09:58;100251.97;;;13.52;95.74
15634;BME280;14654;48.898;8.308;2023-05-16T09:12:24;100254.56;;;13.52;96.42
15634;BME280;14654;48.898;8.308;2023-05-16T09:14:49;100260.75;;;13.45;96.03
15634;BME280;14654;48.898;8.308;2023-05-16T09:17:16;100250.34;;;13.45;96.56
15634;BME280;14654;48.898;8.308;2023-05-16T09:19:42;100256.44;;;13.44;96.55
15634;BME280;14654;48.898;8.308;2023-05-16T09:22:12;100257.34;;;13.39;96.67
15634;BME280;14654;48.898;8.308;2023-05-16T09:24:47;100256.50;;;13.42;97.84
15634;BME280;14654;48.898;8.308;2023-05-16T09:27:13;100266.88;;;13.42;97.58
15634;BME280;14654;48.898;8.308;2023-05-16T09:29:44;100264.31;;;13.40;97.31
15634;BME280;14654;48.898;8.308;2023-05-16T09:32:13;100264.44;;;13.33;97.32
15634;BME280;14654;48.898;8.308;2023-05-16T09:34:43;100282.66;;;13.31;97.54
15634;BME280;14654;48.898;8.308;2023-05-16T09:37:10;100264.59;;;13.25;97.52
15634;BME280;14654;48.898;8.308;2023-05-16T09:39:38;100287.22;;;13.20;97.47
15634;BME280;14654;48.898;8.308;2023-05-16T09:42:03;100281.91;;;13.26;97.86
15634;BME280;14654;48.898;8.308;2023-05-16T09:44:30;100282.09;;;13.17;97.51
15634;BME280;14654;48.898;8.308;2023-05-16T09:46:56;100285.47;;;13.22;98.29
15634;BME280;14654;48.898;8.308;2023-05-16T09:49:22;100281.97;;;13.23;98.38
15634;BME280;14654;48.898;8.308;2023-05-16T09:51:48;100286.25;;;13.25;99.43
15634;BME280;14654;48.898;8.308;2023-05-16T09:54:14;100280.94;;;13.30;98.76
15634;BME280;14654;48.898;8.308;2023-05-16T09:56:49;100288.06;;;13.22;97.57
15634;BME280;14654;48.898;8.308;2023-05-16T09:59:15;100282.03;;;13.20;98.26
15634;BME280;14654;48.898;8.308;2023-05-16T10:01:41;100301.06;;;13.22;98.65
15634;BME280;14654;48.898;8.308;2023-05-16T10:04:06;100289.84;;;13.18;98.04
15634;BME280;14654;48.898;8.308;2023-05-16T10:06:35;100292.44;;;13.18;98.84
15634;BME280;14654;48.898;8.308;2023-05-16T10:09:01;100286.97;;;13.32;97.78
15634;BME280;14654;48.898;8.308;2023-05-16T10:11:28;100286.16;;;13.30;96.81
15634;BME280;14654;48.898;8.308;2023-05-16T10:13:54;100297.97;;;13.47;96.21
15634;BME280;14654;48.898;8.308;2023-05-16T10:16:20;100278.06;;;13.46;94.93
15634;BME280;14654;48.898;8.308;2023-05-16T10:18:47;100290.75;;;13.61;94.43
15634;BME280;14654;48.898;8.308;2023-05-16T10:21:15;100282.56;;;13.78;93.50
15634;BME280;14654;48.898;8.308;2023-05-16T10:23:42;100287.25;;;14.01;93.10
15634;BME280;14654;48.898;8.308;2023-05-16T10:26:08;100289.47;;;14.17;91.29
15634;BME280;14654;48.898;8.308;2023-05-16T10:28:35;100284.72;;;14.35;91.78
15634;BME280;14654;48.898;8.308;2023-05-16T10:31:01;100294.13;;;14.40;90.66
15634;BME280;14654;48.898;8.308;2023-05-16T10:33:27;100291.66;;;14.36;90.81
15634;BME280;14654;48.898;8.308;2023-05-16T10:35:52;100294.56;;;14.23;90.19
15634;BME280;14654;48.898;8.308;2023-05-16T10:38:19;100292.31;;;14.08;91.42
15634;BME280;14654;48.898;8.308;2023-05-16T10:40:45;100299.25;;;14.07;91.07
15634;BME280;14654;48.898;8.308;2023-05-16T10:43:22;100295.75;;;14.10;91.70
15634;BME280;14654;48.898;8.308;2023-05-16T10:45:53;100299.13;;;14.13;92.52
15634;BME280;14654;48.898;8.308;2023-05-16T10:48:34;100295.03;;;14.03;92.03
15634;BME280;14654;48.898;8.308;2023-05-16T10:51:01;100305.63;;;13.94;93.01
15634;BME280;14654;48.898;8.308;2023-05-16T10:53:34;100300.53;;;13.91;92.89
15634;BME280;14654;48.898;8.308;2023-05-16T11:01:20;100301.06;;;14.03;91.05
15634;BME280;14654;48.898;8.308;2023-05-16T11:06:28;100311.47;;;14.05;90.57
15634;BME280;14654;48.898;8.308;2023-05-16T11:14:02;100302.75;;;13.68;90.50
15634;BME280;14654;48.898;8.308;2023-05-16T11:16:28;100321.06;;;13.62;90.64
15634;BME280;14654;48.898;8.308;2023-05-16T11:18:54;100327.34;;;13.52;91.76
15634;BME280;14654;48.898;8.308;2023-05-16T11:22:03;100331.94;;;13.37;91.00
15634;BME280;14654;48.898;8.308;2023-05-16T11:24:29;100334.53;;;13.37;91.62
15634;BME280;14654;48.898;8.308;2023-05-16T11:26:56;100338.81;;;13.41;90.92
15634;BME280;14654;48.898;8.308;2023-05-16T11:29:23;100342.34;;;13.37;90.16
15634;BME280;14654;48.898;8.308;2023-05-16T11:31:48;100336.41;;;13.29;91.22
15634;BME280;14654;48.898;8.308;2023-05-16T11:34:14;100337.25;;;13.31;91.43
15634;BME280;14654;48.898;8.308;2023-05-16T11:36:40;100332.09;;;13.28;90.72
15634;BME280;14654;48.898;8.308;2023-05-16T11:39:06;100347.59;;;13.34;91.21
15634;BME280;14654;48.898;8.308;2023-05-16T11:41:33;100343.28;;;13.32;90.57
15634;BME280;14654;48.898;8.308;2023-05-16T11:43:59;100344.09;;;13.35;90.90
15634;BME280;14654;48.898;8.308;2023-05-16T11:46:25;100338.13;;;13.30;90.61
15634;BME280;14654;48.898;8.308;2023-05-16T11:48:51;100347.69;;;13.30;91.11
15634;BME280;14654;48.898;8.308;2023-05-16T11:51:17;100343.34;;;13.30;91.21
15634;BME280;14654;48.898;8.308;2023-05-16T11:53:44;100338.81;;;13.41;91.08
15634;BME280;14654;48.898;8.308;2023-05-16T11:56:11;100336.03;;;13.51;89.84
15634;BME280;14654;48.898;8.308;2023-05-16T11:58:36;100340.97;;;13.63;89.67
15634;BME280;14654;48.898;8.308;2023-05-16T12:01:03;100344.88;;;13.84;89.57
15634;BME280;14654;48.898;8.308;2023-05-16T12:03:29;100353.50;;;13.85;88.39
15634;BME280;14654;48.898;8.308;2023-05-16T12:05:57;100382.13;;;13.86;87.88
15634;BME280;14654;48.898;8.308;2023-05-16T12:08:23;100355.59;;;13.69;89.09
15634;BME280;14654;48.898;8.308;2023-05-16T12:10:52;100359.09;;;13.68;88.66
15634;BME280;14654;48.898;8.308;2023-05-16T12:13:19;100355.38;;;13.80;88.45
15634;BME280;14654;48.898;8.308;2023-05-16T12:15:45;100351.84;;;13.82;87.45
15634;BME280;14654;48.898;8.308;2023-05-16T12:18:11;100350.84;;;13.88;86.60
15634;BME280;14654;48.898;8.308;2023-05-16T12:20:36;100362.25;;;13.82;86.81
15634;BME280;14654;48.898;8.308;2023-05-16T12:23:02;100364.84;;;13.82;85.82
15634;BME280;14654;48.898;8.308;2023-05-16T12:25:33;100366.69;;;13.77;85.35
15634;BME280;14654;48.898;8.308;2023-05-16T12:28:02;100367.81;;;13.65;86.29
15634;BME280;14654;48.898;8.308;2023-05-16T12:30:30;100369.59;;;13.63;88.10
15634;BME280;14654;48.898;8.308;2023-05-16T12:32:56;100370.81;;;13.45;89.20
15634;BME280;14654;48.898;8.308;2023-05-16T12:35:29;100373.44;;;13.44;89.41
15634;BME280;14654;48.898;8.308;2023-05-16T12:37:55;100381.44;;;13.31;89.75
15634;BME280;14654;48.898;8.308;2023-05-16T12:40:20;100393.66;;;13.26;90.68
15634;BME280;14654;48.898;8.308;2023-05-16T12:42:50;100379.94;;;13.18;90.42
15634;BME280;14654;48.898;8.308;2023-05-16T12:45:16;100395.63;;;13.11;91.17
15634;BME280;14654;48.898;8.308;2023-05-16T12:47:42;100381.06;;;13.04;90.70
15634;BME280;14654;48.898;8.308;2023-05-16T12:50:11;100382.69;;;13.10;90.32
15634;BME280;14654;48.898;8.308;2023-05-16T12:52:54;100385.38;;;13.05;91.10